Time;durP1;ratioP1;P1;durP2;ratioP2;P2;SDS_P1;SDS_P2;PMS_P1;PMS_P2;Temp;Humidity;BMP_temperature;BMP_pressure;BME280_temperature;BME280_humidity;BME280_pressure;Samples;Min_cycle;Max_cycle;Signal;HPM_P1;HPM_P2
2022/05/15 00:02:11;;;;;;;6.20;2.45;;;12.70;99.90;;;;;;4989932;28;20029;-86
2022/05/15 00:04:37;;;;;;;3.55;2.50;;;12.80;99.90;;;;;;4991244;28;20018;-87
2022/05/15 00:07:04;;;;;;;5.53;2.53;;;12.80;99.90;;;;;;4990041;28;20023;-86
2022/05/15 00:09:30;;;;;;;5.95;2.50;;;12.90;99.90;;;;;;4990658;28;20029;-86
2022/05/15 00:11:56;;;;;;;7.88;2.78;;;12.90;99.90;;;;;;4989701;28;20027;-86
2022/05/15 00:14:22;;;;;;;6.63;2.38;;;12.90;99.90;;;;;;4990130;28;20371;-85
2022/05/15 00:16:47;;;;;;;4.45;2.58;;;13.00;99.90;;;;;;4989267;28;20026;-85
2022/05/15 00:19:13;;;;;;;5.93;2.33;;;13.00;99.90;;;;;;4989804;28;20558;-85
2022/05/15 00:21:39;;;;;;;7.40;3.08;;;13.00;99.90;;;;;;4983061;28;20030;-86
2022/05/15 00:24:05;;;;;;;6.13;2.35;;;13.00;99.90;;;;;;4990283;28;20053;-86
2022/05/15 00:26:32;;;;;;;7.20;3.03;;;12.90;99.90;;;;;;4991025;28;20038;-85
2022/05/15 00:28:58;;;;;;;6.72;2.50;;;12.90;99.90;;;;;;4982289;28;20019;-85
2022/05/15 00:31:24;;;;;;;3.38;2.65;;;12.90;99.90;;;;;;4990879;28;20026;-89
2022/05/15 00:33:51;;;;;;;6.50;2.80;;;12.90;99.90;;;;;;4991174;28;20113;-88
2022/05/15 00:36:16;;;;;;;5.22;2.70;;;12.90;99.90;;;;;;4990150;28;20126;-87
2022/05/15 00:38:42;;;;;;;6.72;2.40;;;13.00;99.90;;;;;;4990959;28;20109;-87
2022/05/15 00:41:08;;;;;;;7.78;2.55;;;13.00;99.90;;;;;;4990089;23;20065;-88
2022/05/15 00:43:54;;;;;;;6.07;2.47;;;12.90;99.90;;;;;;4989653;28;20475;-88
2022/05/15 00:46:32;;;;;;;3.10;2.10;;;12.90;99.90;;;;;;4989514;28;20042;-88
2022/05/15 00:49:04;;;;;;;7.90;2.65;;;12.90;99.90;;;;;;4989654;28;20030;-87
2022/05/15 00:51:45;;;;;;;7.00;2.10;;;12.80;99.90;;;;;;4990717;28;20037;-88
2022/05/15 00:54:26;;;;;;;4.78;2.40;;;12.80;99.90;;;;;;4991650;28;20054;-87
2022/05/15 00:56:57;;;;;;;5.07;2.57;;;12.80;99.90;;;;;;4994329;28;20030;-83
2022/05/15 00:59:26;;;;;;;5.53;2.30;;;12.90;99.90;;;;;;4994144;28;20330;-85
2022/05/15 01:01:52;;;;;;;8.70;3.03;;;12.90;99.90;;;;;;4994294;28;20018;-85
2022/05/15 01:04:18;;;;;;;4.43;2.20;;;12.80;99.90;;;;;;4994266;28;20027;-85
2022/05/15 01:06:44;;;;;;;5.38;2.53;;;12.80;99.90;;;;;;4994234;28;20479;-85
2022/05/15 01:09:11;;;;;;;4.75;2.40;;;12.70;99.90;;;;;;4994890;28;20050;-84
2022/05/15 01:11:38;;;;;;;3.97;2.28;;;12.60;99.90;;;;;;4992062;28;20057;-84
2022/05/15 01:14:08;;;;;;;5.10;2.45;;;12.50;99.90;;;;;;4992633;28;20043;-84
2022/05/15 01:16:34;;;;;;;7.82;3.63;;;12.50;99.90;;;;;;4994065;28;20053;-88
2022/05/15 01:19:00;;;;;;;4.22;3.00;;;12.40;99.90;;;;;;4994081;28;20068;-88
2022/05/15 01:21:37;;;;;;;5.97;2.92;;;12.40;99.90;;;;;;4994587;28;20033;-88
2022/05/15 01:24:05;;;;;;;9.85;3.67;;;12.40;99.90;;;;;;4994168;28;20034;-90
2022/05/15 01:26:33;;;;;;;6.13;3.17;;;12.30;99.90;;;;;;4994494;28;20034;-89
2022/05/15 01:29:00;;;;;;;9.90;4.28;;;12.20;99.90;;;;;;4994392;28;20018;-89
2022/05/15 01:31:27;;;;;;;6.22;3.17;;;12.20;99.90;;;;;;4994210;28;20097;-89
2022/05/15 01:33:53;;;;;;;9.05;3.78;;;12.10;99.90;;;;;;4994863;28;20049;-90
2022/05/15 01:36:21;;;;;;;4.15;2.85;;;12.10;99.90;;;;;;4987708;28;20058;-90
2022/05/15 01:38:47;;;;;;;10.07;3.72;;;12.10;99.90;;;;;;4993081;28;20032;-88
2022/05/15 01:41:13;;;;;;;6.40;3.97;;;12.00;99.90;;;;;;5004201;23;20121;-89
2022/05/15 01:43:40;;;;;;;5.00;3.00;;;12.00;99.90;;;;;;4977161;28;20460;-89
2022/05/15 01:46:07;;;;;;;8.60;3.92;;;12.10;99.90;;;;;;4994582;28;20526;-89
2022/05/15 01:48:33;;;;;;;5.88;3.30;;;12.10;99.90;;;;;;4976391;28;20027;-89
2022/05/15 01:50:59;;;;;;;9.45;3.75;;;12.20;99.90;;;;;;4993922;28;20030;-84
2022/05/15 01:53:24;;;;;;;8.50;4.82;;;12.20;99.90;;;;;;4993065;28;20029;-86
2022/05/15 01:55:52;;;;;;;12.77;3.72;;;12.40;99.90;;;;;;4993381;28;20590;-85
2022/05/15 01:58:18;;;;;;;8.65;4.50;;;12.40;99.90;;;;;;4988554;28;20498;-86
2022/05/15 02:00:44;;;;;;;9.65;3.97;;;12.40;99.90;;;;;;4976766;28;20541;-95
2022/05/15 02:03:10;;;;;;;6.65;3.30;;;12.40;99.90;;;;;;4978557;28;20022;-95
2022/05/15 02:05:36;;;;;;;13.57;4.30;;;12.40;99.90;;;;;;4978240;28;20061;-95
2022/05/15 02:08:02;;;;;;;5.32;3.72;;;12.40;99.90;;;;;;4980751;28;20026;-94
2022/05/15 02:10:29;;;;;;;9.85;4.20;;;12.40;99.90;;;;;;4978574;28;20033;-94
2022/05/15 02:12:55;;;;;;;6.40;3.78;;;12.50;99.90;;;;;;4979165;28;20120;-95
2022/05/15 02:15:21;;;;;;;11.00;4.45;;;12.50;99.90;;;;;;4980448;28;20026;-94
2022/05/15 02:17:47;;;;;;;10.77;4.28;;;12.50;99.90;;;;;;4985118;28;20034;-95
2022/05/15 02:20:14;;;;;;;13.63;4.30;;;12.50;99.90;;;;;;4978021;28;20093;-94
2022/05/15 02:22:40;;;;;;;12.15;4.68;;;12.50;99.90;;;;;;4966013;28;20026;-94
2022/05/15 02:25:08;;;;;;;7.63;3.80;;;12.40;99.90;;;;;;4986888;28;20042;-94
2022/05/15 02:27:34;;;;;;;12.77;4.78;;;12.40;99.90;;;;;;4982342;28;20541;-93
2022/05/15 02:30:02;;;;;;;5.07;3.92;;;12.50;99.90;;;;;;4981630;28;20117;-94
2022/05/15 02:32:27;;;;;;;7.72;3.47;;;12.50;99.90;;;;;;4979593;28;20023;-94
2022/05/15 02:34:53;;;;;;;10.45;3.65;;;12.50;99.90;;;;;;4979118;28;20037;-94
2022/05/15 02:37:19;;;;;;;8.20;3.97;;;12.50;99.90;;;;;;4978565;28;20026;-94
2022/05/15 02:39:45;;;;;;;6.85;4.40;;;12.50;99.90;;;;;;4978471;28;20049;-94
2022/05/15 02:42:11;;;;;;;11.43;4.07;;;12.50;99.90;;;;;;4977310;28;20048;-94
2022/05/15 02:44:37;;;;;;;10.20;3.97;;;12.60;99.90;;;;;;4977796;28;20109;-94
2022/05/15 02:47:03;;;;;;;7.93;3.88;;;12.50;99.90;;;;;;4977686;28;20467;-94
2022/05/15 02:52:13;;;;;;;11.50;4.97;;;12.40;99.90;;;;;;4995201;28;20033;-86
2022/05/15 02:54:39;;;;;;;8.30;4.07;;;12.50;99.90;;;;;;4974816;28;20399;-85
2022/05/15 02:57:07;;;;;;;10.35;4.03;;;12.50;99.90;;;;;;4992097;28;20026;-85
2022/05/15 02:59:34;;;;;;;9.75;3.75;;;12.50;99.90;;;;;;4987174;28;20045;-84
2022/05/15 03:02:01;;;;;;;7.57;4.72;;;12.50;99.90;;;;;;4992032;28;20402;-84
2022/05/15 03:04:27;;;;;;;8.07;4.25;;;12.60;99.90;;;;;;4992328;28;20455;-84
2022/05/15 03:06:53;;;;;;;7.05;3.80;;;12.60;99.90;;;;;;4991896;28;20041;-84
2022/05/15 03:09:20;;;;;;;7.70;3.88;;;12.60;99.90;;;;;;4991550;28;20068;-85
2022/05/15 03:11:45;;;;;;;7.38;3.60;;;12.60;99.90;;;;;;4994527;22;20042;-88
2022/05/15 03:14:11;;;;;;;5.68;4.00;;;12.60;99.90;;;;;;4973942;28;21464;-88
2022/05/15 03:16:37;;;;;;;9.90;4.15;;;12.50;99.90;;;;;;4956510;28;20053;-87
2022/05/15 03:19:03;;;;;;;9.90;4.28;;;12.50;99.90;;;;;;4957239;28;20051;-88
2022/05/15 03:21:29;;;;;;;10.57;4.20;;;12.50;99.90;;;;;;4956630;28;20085;-88
2022/05/15 03:23:57;;;;;;;7.15;3.50;;;12.50;99.90;;;;;;4955854;28;20019;-87
2022/05/15 03:26:24;;;;;;;7.10;4.00;;;12.50;99.90;;;;;;4955559;28;20039;-90
2022/05/15 03:28:50;;;;;;;9.63;4.13;;;12.40;99.90;;;;;;4955111;28;20499;-87
2022/05/15 03:31:16;;;;;;;8.88;4.40;;;12.30;99.90;;;;;;4954993;28;20034;-87
2022/05/15 03:33:42;;;;;;;10.82;4.85;;;12.20;99.90;;;;;;4972787;28;20023;-86
2022/05/15 03:36:10;;;;;;;6.35;4.55;;;12.20;99.90;;;;;;4955366;28;20041;-88
2022/05/15 03:38:41;;;;;;;10.73;4.60;;;12.30;99.90;;;;;;4956160;28;20093;-92
2022/05/15 03:41:07;;;;;;;13.80;6.15;;;12.30;99.90;;;;;;4950450;28;20061;-91
2022/05/15 03:43:35;;;;;;;10.13;5.07;;;12.30;99.90;;;;;;4960685;28;20102;-92
2022/05/15 03:46:02;;;;;;;12.82;5.20;;;12.30;99.90;;;;;;4956257;28;20550;-90
2022/05/15 03:48:28;;;;;;;8.38;5.13;;;12.30;99.90;;;;;;4956953;28;20026;-90
2022/05/15 03:50:54;;;;;;;9.77;4.93;;;12.40;99.90;;;;;;4973710;28;20027;-89
2022/05/15 03:53:20;;;;;;;9.07;5.03;;;12.40;99.90;;;;;;4956210;28;20018;-90
2022/05/15 03:55:46;;;;;;;19.13;5.95;;;12.40;99.90;;;;;;4956081;28;20649;-90
2022/05/15 03:58:12;;;;;;;12.70;5.40;;;12.50;99.90;;;;;;4951427;28;20059;-90
2022/05/15 04:00:37;;;;;;;12.45;6.32;;;12.50;99.90;;;;;;4954118;28;20027;-91
2022/05/15 04:03:03;;;;;;;14.43;5.35;;;12.60;99.90;;;;;;4956047;28;20019;-90
2022/05/15 04:05:29;;;;;;;13.85;5.18;;;12.70;99.90;;;;;;4956622;28;20030;-90
2022/05/15 04:07:56;;;;;;;6.78;5.07;;;12.60;99.90;;;;;;4956702;28;20385;-88
2022/05/15 04:10:23;;;;;;;10.35;4.95;;;12.70;99.90;;;;;;4987576;23;20014;-93
2022/05/15 04:12:49;;;;;;;11.02;5.75;;;12.70;99.90;;;;;;5013679;28;20030;-95
2022/05/15 04:15:15;;;;;;;13.20;5.75;;;12.70;99.90;;;;;;4996989;28;20044;-94
2022/05/15 04:17:46;;;;;;;10.25;5.22;;;12.80;99.90;;;;;;5004332;28;20030;-94
2022/05/15 04:20:14;;;;;;;16.27;5.70;;;12.70;99.90;;;;;;4996695;28;20025;-94
2022/05/15 04:22:40;;;;;;;11.43;5.20;;;12.60;99.90;;;;;;4995137;28;20066;-90
2022/05/15 04:25:07;;;;;;;13.48;5.40;;;12.50;99.90;;;;;;5016871;28;20033;-93
2022/05/15 04:27:33;;;;;;;12.05;5.32;;;12.50;99.90;;;;;;5000108;28;20084;-93
2022/05/15 04:29:59;;;;;;;10.15;5.38;;;12.70;99.90;;;;;;5013155;28;20026;-92
2022/05/15 04:32:25;;;;;;;6.72;4.95;;;12.60;99.90;;;;;;4999913;28;20056;-91
2022/05/15 04:34:51;;;;;;;10.13;5.63;;;12.70;99.90;;;;;;4999669;28;20060;-92
2022/05/15 04:37:16;;;;;;;15.63;5.60;;;12.80;99.90;;;;;;5003287;28;20030;-90
2022/05/15 04:39:42;;;;;;;11.38;5.35;;;12.80;99.90;;;;;;5013315;28;20073;-93
2022/05/15 04:42:10;;;;;;;8.52;5.20;;;12.80;99.90;;;;;;5003057;28;20022;-92
2022/05/15 04:44:36;;;;;;;12.30;5.40;;;12.80;99.90;;;;;;4995451;28;20059;-92
2022/05/15 04:47:01;;;;;;;14.30;5.43;;;12.80;99.90;;;;;;5002925;28;20034;-92
2022/05/15 04:49:27;;;;;;;11.05;6.00;;;12.90;99.90;;;;;;5015449;28;20029;-92
2022/05/15 04:51:53;;;;;;;11.23;5.82;;;12.90;99.90;;;;;;5000871;28;20541;-93
2022/05/15 04:54:19;;;;;;;11.68;4.70;;;13.00;99.90;;;;;;5013773;28;20072;-92
2022/05/15 04:56:44;;;;;;;9.77;5.25;;;13.00;99.90;;;;;;5003019;28;20053;-94
2022/05/15 04:59:10;;;;;;;12.05;5.40;;;13.00;99.90;;;;;;4994447;28;20026;-84
2022/05/15 05:01:36;;;;;;;16.65;5.30;;;13.10;99.90;;;;;;5010948;28;20393;-84
2022/05/15 05:04:02;;;;;;;14.70;5.55;;;13.10;99.90;;;;;;4993559;28;20022;-84
2022/05/15 05:06:28;;;;;;;7.90;4.70;;;13.10;99.90;;;;;;4993379;28;20034;-84
2022/05/15 05:08:54;;;;;;;8.00;4.68;;;13.00;99.90;;;;;;5017831;28;20025;-85
2022/05/15 05:11:21;;;;;;;8.60;5.18;;;13.10;99.90;;;;;;5005029;22;20051;-90
2022/05/15 05:13:46;;;;;;;7.53;5.18;;;13.10;99.90;;;;;;4957130;28;20031;-92
2022/05/15 05:16:13;;;;;;;13.48;5.82;;;13.10;99.90;;;;;;4957305;28;20029;-89
2022/05/15 05:18:38;;;;;;;8.57;4.63;;;13.10;99.90;;;;;;4964007;28;20045;-91
2022/05/15 05:21:06;;;;;;;10.70;5.30;;;13.10;99.90;;;;;;4956510;28;20027;-88
2022/05/15 05:23:32;;;;;;;10.05;5.07;;;13.10;99.90;;;;;;4962745;28;20035;-88
2022/05/15 05:25:58;;;;;;;7.53;4.97;;;13.10;99.90;;;;;;4955752;28;20054;-88
2022/05/15 05:28:24;;;;;;;15.77;6.85;;;13.20;99.90;;;;;;4956054;28;20058;-89
2022/05/15 05:30:51;;;;;;;13.32;5.68;;;13.20;99.90;;;;;;4962121;28;20022;-88
2022/05/15 05:33:17;;;;;;;14.25;5.38;;;13.30;99.90;;;;;;4956266;28;20035;-88
2022/05/15 05:35:43;;;;;;;14.30;5.30;;;13.20;99.90;;;;;;4955214;28;20480;-87
2022/05/15 05:38:09;;;;;;;9.52;4.80;;;13.30;99.90;;;;;;4954771;28;20494;-86
2022/05/15 05:40:35;;;;;;;7.13;3.83;;;13.20;99.90;;;;;;4955732;28;20114;-85
2022/05/15 05:43:01;;;;;;;11.00;4.70;;;13.20;99.90;;;;;;4957912;28;20034;-85
2022/05/15 05:45:27;;;;;;;8.27;4.70;;;13.20;99.90;;;;;;4958064;28;20039;-86
2022/05/15 05:47:54;;;;;;;6.55;3.85;;;13.20;99.90;;;;;;4958644;28;20023;-88
2022/05/15 05:50:23;;;;;;;11.18;5.15;;;13.20;99.90;;;;;;4959924;28;20027;-88
2022/05/15 05:52:49;;;;;;;12.45;5.25;;;13.20;99.90;;;;;;4963893;28;20019;-89
2022/05/15 05:55:17;;;;;;;7.85;4.65;;;13.20;99.90;;;;;;4959116;28;20081;-89
2022/05/15 05:57:43;;;;;;;8.75;4.28;;;13.20;99.90;;;;;;4966005;28;20034;-88
2022/05/15 06:00:14;;;;;;;12.45;5.53;;;13.30;99.90;;;;;;4965378;28;20100;-89
2022/05/15 06:02:39;;;;;;;12.15;5.80;;;13.30;99.90;;;;;;4965649;28;20022;-88
2022/05/15 06:05:06;;;;;;;9.55;4.60;;;13.30;99.90;;;;;;4976152;28;20353;-90
2022/05/15 06:07:33;;;;;;;11.05;4.50;;;13.30;99.90;;;;;;4958945;28;20058;-88
2022/05/15 06:10:03;;;;;;;12.52;4.82;;;13.30;99.90;;;;;;4958836;28;20487;-90
2022/05/15 06:12:29;;;;;;;11.73;4.97;;;13.30;99.90;;;;;;5027907;23;20115;-87
2022/05/15 06:14:54;;;;;;;6.30;4.72;;;13.20;99.90;;;;;;5015649;28;20502;-87
2022/05/15 06:17:25;;;;;;;9.02;4.88;;;13.20;99.90;;;;;;5015468;28;20022;-87
2022/05/15 06:19:52;;;;;;;11.85;5.18;;;13.20;99.90;;;;;;5040406;28;20105;-87
2022/05/15 06:22:18;;;;;;;10.02;4.72;;;13.10;99.90;;;;;;4997241;28;20029;-87
2022/05/15 06:24:44;;;;;;;9.77;5.15;;;13.20;99.90;;;;;;4996387;28;20022;-87
2022/05/15 06:27:10;;;;;;;11.82;5.13;;;13.20;99.90;;;;;;5013354;28;20025;-87
2022/05/15 06:29:38;;;;;;;11.48;5.35;;;13.10;99.90;;;;;;5013679;28;20073;-88
2022/05/15 06:32:05;;;;;;;9.98;5.60;;;13.20;99.90;;;;;;5013657;28;20025;-87
2022/05/15 06:34:31;;;;;;;14.13;5.97;;;13.30;99.90;;;;;;5013237;28;20409;-86
2022/05/15 06:36:57;;;;;;;8.68;5.13;;;13.30;99.90;;;;;;5013156;28;20022;-87
2022/05/15 06:39:22;;;;;;;14.50;5.32;;;13.40;99.90;;;;;;5013559;28;20017;-87
2022/05/15 06:41:50;;;;;;;9.57;5.78;;;13.50;99.90;;;;;;4995504;28;20072;-87
2022/05/15 06:44:19;;;;;;;8.70;4.63;;;13.70;99.90;;;;;;4995585;28;20390;-82
2022/05/15 06:46:46;;;;;;;8.15;5.40;;;13.80;99.90;;;;;;4995592;28;20034;-85
2022/05/15 06:49:13;;;;;;;11.45;5.20;;;13.80;99.90;;;;;;4995416;28;20474;-85
2022/05/15 06:51:40;;;;;;;9.77;4.53;;;13.90;99.90;;;;;;5002156;28;20116;-86
2022/05/15 06:54:06;;;;;;;7.97;5.50;;;14.10;99.90;;;;;;4995659;28;20478;-86
2022/05/15 06:59:16;;;;;;;11.20;4.93;;;14.40;99.90;;;;;;5012370;28;20033;-86
2022/05/15 07:01:41;;;;;;;12.98;5.30;;;14.60;99.90;;;;;;5012592;28;20014;-86
2022/05/15 07:04:07;;;;;;;9.40;5.00;;;14.80;99.90;;;;;;4995439;28;20069;-87
2022/05/15 07:06:33;;;;;;;8.27;4.57;;;14.90;99.90;;;;;;4995250;28;20042;-87
2022/05/15 07:08:58;;;;;;;10.95;5.32;;;15.10;99.90;;;;;;5012541;28;20096;-87
2022/05/15 07:11:24;;;;;;;11.98;5.78;;;15.30;99.90;;;;;;5003058;22;20058;-86
2022/05/15 07:13:50;;;;;;;9.98;5.30;;;15.60;99.90;;;;;;4937495;28;20123;-85
2022/05/15 07:16:16;;;;;;;8.60;4.63;;;15.80;99.90;;;;;;4953971;28;20058;-85
2022/05/15 07:18:42;;;;;;;13.07;5.38;;;16.00;99.90;;;;;;4937281;28;20034;-85
2022/05/15 07:21:08;;;;;;;6.55;4.93;;;16.10;99.90;;;;;;4936727;28;20432;-85
2022/05/15 07:23:34;;;;;;;7.40;4.82;;;16.20;99.90;;;;;;4954380;28;20480;-87
2022/05/15 07:26:00;;;;;;;17.17;5.65;;;16.40;99.90;;;;;;4953773;28;20031;-83
2022/05/15 07:28:26;;;;;;;11.90;5.38;;;16.50;99.90;;;;;;4954286;28;20027;-83
2022/05/15 07:30:52;;;;;;;10.23;4.82;;;16.70;99.90;;;;;;4953833;28;20027;-83
2022/05/15 07:33:24;;;;;;;11.13;5.07;;;16.80;99.90;;;;;;4936112;28;20028;-83
2022/05/15 07:35:50;;;;;;;;;;;16.90;99.90;;;;;;4953805;28;20041;-84
2022/05/15 07:38:16;;;;;;;13.98;5.20;;;16.90;99.90;;;;;;4936526;29;19972;-85
2022/05/15 07:40:43;;;;;;;11.13;4.88;;;17.00;99.90;;;;;;4936766;28;20057;-79
2022/05/15 07:43:10;;;;;;;7.30;4.85;;;17.10;99.90;;;;;;4953504;28;20035;-79
2022/05/15 07:45:37;;;;;;;11.23;4.85;;;17.10;99.90;;;;;;4953249;28;20035;-79
2022/05/15 07:48:03;;;;;;;14.68;5.00;;;17.00;99.90;;;;;;4953489;28;20027;-79
2022/05/15 07:50:29;;;;;;;10.45;5.50;;;17.00;99.90;;;;;;4953669;28;20023;-79
2022/05/15 07:52:55;;;;;;;9.98;4.60;;;16.90;99.90;;;;;;4953113;28;20030;-79
2022/05/15 07:55:21;;;;;;;10.77;4.95;;;16.80;99.90;;;;;;4953055;28;20090;-80
2022/05/15 07:57:47;;;;;;;14.68;4.75;;;16.80;99.90;;;;;;4952899;28;20098;-80
2022/05/15 08:00:14;;;;;;;6.72;4.60;;;16.70;99.90;;;;;;4952627;28;20110;-80
2022/05/15 08:02:44;;;;;;;8.10;4.63;;;16.60;99.90;;;;;;4952844;28;20028;-79
2022/05/15 08:08:03;;;;;;;;;;;16.40;99.90;;;;;;4953896;28;20038;-79
2022/05/15 08:10:39;;;;;;;9.88;4.63;;;16.20;99.90;;;;;;4952231;23;19899;-82
2022/05/15 08:13:06;;;;;;;13.50;4.82;;;16.10;99.90;;;;;;4933230;28;20074;-83
2022/05/15 08:15:33;;;;;;;9.00;5.35;;;16.10;99.90;;;;;;4949505;28;20427;-83
2022/05/15 08:23:44;;;;;;;9.48;5.38;;;15.70;99.90;;;;;;4948935;28;20026;-82
2022/05/15 08:26:11;;;;;;;10.97;6.00;;;15.60;99.90;;;;;;4946562;28;20070;-81
2022/05/15 08:28:37;;;;;;;10.93;5.57;;;15.40;99.90;;;;;;4952886;28;20046;-82
2022/05/15 08:31:04;;;;;;;10.68;6.25;;;15.20;99.90;;;;;;4953162;28;20027;-81
2022/05/15 08:33:31;;;;;;;13.65;5.70;;;15.10;99.90;;;;;;4953161;28;20102;-82
2022/05/15 08:35:57;;;;;;;12.90;5.80;;;15.00;99.90;;;;;;4952992;28;20031;-81
2022/05/15 08:38:23;;;;;;;9.07;5.95;;;14.90;99.90;;;;;;4952963;28;20476;-82
2022/05/15 08:41:03;;;;;;;11.77;5.93;;;14.90;99.90;;;;;;4952791;28;20110;-83
2022/05/15 08:43:45;;;;;;;8.80;5.88;;;14.90;99.90;;;;;;4952814;28;20019;-83
2022/05/15 08:46:22;;;;;;;10.43;6.70;;;14.70;99.90;;;;;;4946387;28;20154;-81
2022/05/15 08:48:49;;;;;;;10.45;6.28;;;14.70;99.90;;;;;;4952879;28;20035;-81
2022/05/15 08:51:15;;;;;;;10.93;6.88;;;14.70;99.90;;;;;;4952821;28;20150;-84
2022/05/15 08:53:43;;;;;;;13.63;6.63;;;14.70;99.90;;;;;;4951504;28;20113;-83
2022/05/15 08:56:13;;;;;;;12.82;6.95;;;14.80;99.90;;;;;;4952235;28;20031;-83
2022/05/15 08:58:48;;;;;;;11.75;6.43;;;14.80;99.90;;;;;;4951883;28;20047;-81
2022/05/15 09:01:20;;;;;;;12.68;6.22;;;14.80;99.90;;;;;;4951138;28;20028;-83
2022/05/15 09:03:48;;;;;;;10.77;6.65;;;14.80;99.90;;;;;;4952316;28;20158;-86
2022/05/15 09:06:22;;;;;;;11.45;5.88;;;14.90;99.90;;;;;;4952651;28;20435;-84
2022/05/15 09:09:13;;;;;;;12.80;6.93;;;14.90;99.90;;;;;;4952941;28;20624;-87
2022/05/15 09:12:01;;;;;;;14.02;6.72;;;14.80;99.90;;;;;;4987052;23;20039;-85
2022/05/15 09:14:50;;;;;;;14.70;7.03;;;14.70;99.90;;;;;;4949366;28;20141;-85
2022/05/15 09:17:51;;;;;;;15.85;6.10;;;14.70;99.90;;;;;;4953524;28;20031;-87
2022/05/15 09:20:27;;;;;;;12.00;6.40;;;14.80;99.90;;;;;;4967123;28;20388;-87
2022/05/15 09:23:21;;;;;;;13.60;6.75;;;15.00;99.90;;;;;;4975687;28;20030;-88
2022/05/15 09:26:17;;;;;;;12.43;6.55;;;15.20;99.90;;;;;;4964702;28;20093;-84
2022/05/15 09:28:51;;;;;;;13.23;6.05;;;15.40;99.90;;;;;;4971516;28;20031;-83
2022/05/15 09:31:35;;;;;;;11.25;6.13;;;15.70;99.90;;;;;;4970363;28;20031;-83
2022/05/15 09:34:22;;;;;;;10.10;5.75;;;15.90;99.90;;;;;;4974427;28;20031;-83
2022/05/15 09:36:50;;;;;;;14.43;6.00;;;16.20;99.90;;;;;;4975595;28;20034;-85
2022/05/15 09:39:18;;;;;;;11.32;5.85;;;16.50;99.90;;;;;;4975129;28;20427;-82
2022/05/15 09:44:41;;;;;;;10.88;5.47;;;16.80;99.90;;;;;;4974198;28;20034;-82
2022/05/15 09:47:10;;;;;;;10.82;5.68;;;17.10;99.90;;;;;;4975120;28;20105;-83
2022/05/15 09:49:36;;;;;;;10.73;5.68;;;17.50;99.90;;;;;;4975155;28;20069;-82
2022/05/15 09:52:11;;;;;;;9.70;4.45;;;17.60;99.90;;;;;;4975302;28;20042;-82
2022/05/15 09:54:38;;;;;;;9.68;4.63;;;18.00;99.90;;;;;;4974623;28;20034;-82
2022/05/15 09:57:25;;;;;;;6.32;4.47;;;18.60;99.90;;;;;;4950786;28;20037;-83
2022/05/15 10:00:00;;;;;;;7.43;4.95;;;19.00;99.90;;;;;;4967399;28;20025;-82
2022/05/15 10:02:26;;;;;;;10.80;4.88;;;18.80;99.90;;;;;;4957230;28;20395;-83
2022/05/15 10:04:53;;;;;;;8.80;4.80;;;18.80;99.90;;;;;;4974652;28;20464;-83
2022/05/15 10:07:44;;;;;;;10.93;4.68;;;18.90;99.90;;;;;;4957201;28;20432;-83
2022/05/15 10:10:28;;;;;;;16.55;4.93;;;18.70;99.90;;;;;;4971478;28;20503;-83
2022/05/15 10:13:00;;;;;;;10.35;4.70;;;18.80;99.90;;;;;;4975095;28;20041;-82
2022/05/15 10:15:35;;;;;;;8.38;4.40;;;18.70;99.90;;;;;;4973954;28;20027;-81
2022/05/15 10:18:03;;;;;;;8.27;4.50;;;18.70;99.90;;;;;;4957000;28;20023;-81
2022/05/15 10:20:34;;;;;;;11.48;3.97;;;18.50;99.90;;;;;;4957393;28;20022;-83
2022/05/15 10:23:06;;;;;;;11.55;4.72;;;18.40;99.90;;;;;;4975016;28;20106;-83
2022/05/15 10:25:41;;;;;;;;;;;18.30;99.90;;;;;;4974608;28;20070;-82
2022/05/15 10:28:18;;;;;;;6.18;3.63;;;18.30;99.90;;;;;;4973954;28;19913;-81
2022/05/15 10:31:02;;;;;;;9.15;4.50;;;18.30;99.90;;;;;;4968207;28;20598;-82
2022/05/15 10:33:38;;;;;;;7.82;4.22;;;18.30;99.90;;;;;;4967741;28;20395;-82
2022/05/15 10:36:15;;;;;;;10.60;5.68;;;18.10;99.90;;;;;;4974415;28;20035;-82
2022/05/15 10:38:54;;;;;;;7.53;4.45;;;18.00;99.90;;;;;;4974577;28;20033;-82
2022/05/15 10:41:40;;;;;;;9.25;3.78;;;17.80;99.90;;;;;;4974162;28;20113;-82
2022/05/15 10:44:27;;;;;;;5.28;4.18;;;17.90;99.90;;;;;;4973947;28;20019;-82
2022/05/15 10:47:03;;;;;;;8.82;4.13;;;17.90;99.90;;;;;;4956437;28;20025;-82
2022/05/15 10:49:44;;;;;;;7.75;4.18;;;17.90;99.90;;;;;;4974146;28;20031;-82
2022/05/15 10:52:34;;;;;;;6.07;4.00;;;17.90;99.90;;;;;;4974055;28;20018;-82
2022/05/15 10:58:17;;;;;;;9.38;4.57;;;17.80;99.90;;;;;;4968787;28;20033;-83
2022/05/15 11:01:05;;;;;;;10.20;4.25;;;17.70;99.90;;;;;;4967720;28;20038;-82
2022/05/15 11:03:54;;;;;;;6.30;4.20;;;17.70;99.90;;;;;;4968059;28;20030;-83
2022/05/15 11:06:46;;;;;;;7.55;4.07;;;17.70;99.90;;;;;;4968900;28;20038;-82
2022/05/15 11:09:18;;;;;;;;;;;17.70;99.90;;;;;;4973281;28;20022;-83
2022/05/15 11:11:55;;;;;;;6.65;3.67;;;17.60;99.90;;;;;;4970540;28;20386;-84
2022/05/15 11:14:37;;;;;;;7.15;3.83;;;17.60;99.90;;;;;;4972819;28;20520;-83
2022/05/15 11:17:22;;;;;;;7.82;4.03;;;17.80;99.90;;;;;;4965318;28;20058;-83
2022/05/15 11:19:49;;;;;;;5.15;3.80;;;17.90;99.90;;;;;;4971823;28;20027;-91
2022/05/15 11:22:37;;;;;;;7.60;3.30;;;18.10;99.90;;;;;;4969981;28;20033;-85
2022/05/15 11:25:38;;;;;;;5.15;3.28;;;18.20;99.90;;;;;;4973704;28;20072;-83
2022/05/15 11:28:09;;;;;;;4.82;3.30;;;18.20;99.90;;;;;;4965158;28;20080;-84
2022/05/15 11:30:38;;;;;;;;;;;18.20;99.90;;;;;;4956528;28;20027;-83
2022/05/15 11:33:44;;;;;;;7.68;3.60;;;18.20;99.90;;;;;;4973489;28;19965;-85
2022/05/15 11:36:21;;;;;;;7.68;4.35;;;18.20;99.90;;;;;;4920834;28;20051;-85
2022/05/15 11:39:06;;;;;;;7.90;3.70;;;18.20;99.90;;;;;;4966293;28;20023;-84
2022/05/15 11:41:34;;;;;;;6.65;4.35;;;18.20;99.90;;;;;;4972852;28;20023;-84
2022/05/15 11:44:07;;;;;;;6.78;3.50;;;18.20;99.90;;;;;;4972442;28;20023;-85
2022/05/15 11:46:45;;;;;;;6.57;4.47;;;18.20;99.90;;;;;;4972800;28;20070;-84
2022/05/15 11:49:36;;;;;;;6.57;4.32;;;18.10;99.90;;;;;;4970968;28;20049;-84
2022/05/15 11:52:05;;;;;;;7.95;4.18;;;17.80;99.90;;;;;;4970866;28;20025;-85
2022/05/15 11:54:39;;;;;;;7.35;4.55;;;17.60;99.90;;;;;;4973293;28;20077;-85
2022/05/15 11:57:38;;;;;;;6.93;4.40;;;17.30;99.90;;;;;;4972925;28;20045;-84
2022/05/15 12:00:10;;;;;;;8.38;4.30;;;17.20;99.90;;;;;;4968420;28;20515;-84
2022/05/15 12:03:02;;;;;;;10.65;4.53;;;17.10;99.90;;;;;;4972775;28;20027;-84
2022/05/15 12:05:38;;;;;;;9.10;4.32;;;16.90;99.90;;;;;;4965714;28;20031;-84
2022/05/15 12:08:17;;;;;;;10.32;4.82;;;16.80;99.90;;;;;;4952690;28;20054;-83
2022/05/15 12:10:43;;;;;;;9.95;5.20;;;16.80;99.90;;;;;;4986621;23;19999;-89
2022/05/15 12:13:13;;;;;;;10.25;5.25;;;16.90;99.90;;;;;;4963824;28;20042;-90
2022/05/15 12:15:44;;;;;;;7.72;5.25;;;17.10;99.90;;;;;;4951367;28;20567;-89
2022/05/15 12:18:30;;;;;;;9.30;5.15;;;17.20;99.90;;;;;;4952695;28;20027;-90
2022/05/15 12:20:57;;;;;;;8.52;5.28;;;17.40;99.90;;;;;;4953530;28;20050;-92
2022/05/15 12:23:32;;;;;;;7.57;4.70;;;17.60;99.90;;;;;;4953097;29;20054;-89
2022/05/15 12:26:26;;;;;;;11.95;5.82;;;17.80;99.90;;;;;;4952897;29;20028;-90
2022/05/15 12:29:06;;;;;;;9.73;5.57;;;18.00;99.90;;;;;;4941418;29;20035;-91
2022/05/15 12:31:42;;;;;;;11.40;5.70;;;18.30;99.90;;;;;;4940500;29;20070;-93
2022/05/15 12:34:17;;;;;;;10.88;5.05;;;18.70;99.90;;;;;;4953392;29;20476;-93
2022/05/15 12:36:51;;;;;;;9.68;4.95;;;18.90;99.90;;;;;;4947899;28;20099;-95
2022/05/15 12:39:29;;;;;;;6.68;4.90;;;19.20;99.90;;;;;;4956434;29;20027;-92
2022/05/15 12:42:07;;;;;;;8.27;4.95;;;19.40;99.90;;;;;;4940535;29;20027;-92
2022/05/15 12:44:36;;;;;;;13.13;5.75;;;19.50;99.90;;;;;;4934205;28;20032;-92
2022/05/15 12:47:05;;;;;;;9.57;4.93;;;19.60;99.90;;;;;;4938850;29;20405;-90
2022/05/15 12:49:42;;;;;;;7.85;4.85;;;19.60;99.90;;;;;;4935636;28;20539;-88
2022/05/15 12:52:13;;;;;;;11.18;4.78;;;19.30;99.90;;;;;;4933841;29;20027;-89
2022/05/15 12:54:39;;;;;;;9.93;4.88;;;19.10;99.90;;;;;;4947006;28;20047;-91
2022/05/15 12:57:09;;;;;;;5.95;4.40;;;19.10;99.90;;;;;;4938061;29;20490;-90
2022/05/15 12:59:38;;;;;;;8.85;4.97;;;19.10;99.90;;;;;;4937608;29;20083;-91
2022/05/15 13:02:23;;;;;;;8.10;4.45;;;19.10;99.90;;;;;;4951629;29;20027;-91
2022/05/15 13:04:53;;;;;;;12.57;5.25;;;19.20;99.90;;;;;;4937687;29;20052;-94
2022/05/15 13:07:31;;;;;;;6.43;4.25;;;19.40;99.90;;;;;;4950163;28;20067;-93
2022/05/15 13:10:12;;;;;;;9.15;5.15;;;19.20;99.90;;;;;;5002614;23;20038;-89
2022/05/15 13:13:01;;;;;;;10.07;5.10;;;18.90;99.90;;;;;;4951503;23;20078;-86
2022/05/15 13:15:29;;;;;;;10.23;5.05;;;19.20;99.90;;;;;;4941141;28;20072;-82
2022/05/15 13:17:57;;;;;;;9.48;5.05;;;19.30;99.90;;;;;;4927417;29;20416;-84
2022/05/15 13:20:26;;;;;;;9.75;5.63;;;19.40;99.90;;;;;;4933953;29;20027;-84